Time;durP1;ratioP1;P1;durP2;ratioP2;P2;SDS_P1;SDS_P2;PMS_P1;PMS_P2;Temp;Humidity;BMP_temperature;BMP_pressure;BME280_temperature;BME280_humidity;BME280_pressure;Samples;Min_cycle;Max_cycle;Signal;HPM_P1;HPM_P2
2022/10/07 00:00:27;;;;;;;1.23;1.00;;;;;;;13.64;100.00;101292.78;5113817;28;20201;-73
2022/10/07 00:02:53;;;;;;;1.67;1.00;;;;;;;13.64;100.00;101285.84;5113346;28;20209;-73
2022/10/07 00:05:20;;;;;;;0.98;0.80;;;;;;;13.76;100.00;101298.28;5113785;28;20659;-73
2022/10/07 00:07:47;;;;;;;0.80;0.80;;;;;;;13.64;100.00;101267.63;5111030;28;20672;-74
2022/10/07 00:10:14;;;;;;;2.05;1.13;;;;;;;13.85;100.00;101295.84;5097721;28;20209;-73
2022/10/07 00:12:41;;;;;;;1.13;1.00;;;;;;;13.85;100.00;101299.34;5093311;28;20255;-73
2022/10/07 00:15:10;;;;;;;1.40;0.93;;;;;;;13.98;100.00;101299.63;5058592;28;20198;-73
2022/10/07 00:17:37;;;;;;;1.15;0.90;;;;;;;13.77;100.00;101273.94;5074030;28;20221;-73
2022/10/07 00:20:05;;;;;;;1.13;1.00;;;;;;;13.96;100.00;101310.00;5073231;28;20206;-73
2022/10/07 00:22:32;;;;;;;1.27;0.90;;;;;;;13.90;100.00;101307.28;5073681;28;20324;-73
2022/10/07 00:24:59;;;;;;;0.80;0.80;;;;;;;13.82;100.00;101308.84;5108694;28;20205;-73
2022/10/07 00:27:25;;;;;;;1.08;0.93;;;;;;;13.74;100.00;101305.16;5112157;28;20280;-74
2022/10/07 00:29:52;;;;;;;0.80;0.80;;;;;;;13.69;100.00;101307.69;5110496;28;20206;-73
2022/10/07 00:32:20;;;;;;;1.40;1.00;;;;;;;13.69;100.00;101296.38;5107739;28;20195;-72
2022/10/07 00:34:47;;;;;;;1.10;0.90;;;;;;;13.62;100.00;101305.81;5092480;28;20209;-73
2022/10/07 00:37:14;;;;;;;2.00;1.00;;;;;;;13.55;100.00;101292.59;5101902;28;20185;-72
2022/10/07 00:39:41;;;;;;;1.40;0.98;;;;;;;13.39;100.00;101279.22;5076351;28;20591;-74
2022/10/07 00:42:12;;;;;;;0.93;0.88;;;;;;;13.44;100.00;101288.88;5112422;28;20208;-73
2022/10/07 00:44:41;;;;;;;1.00;0.90;;;;;;;13.62;100.00;101303.19;5099892;28;20194;-73
2022/10/07 00:47:17;;;;;;;1.17;0.95;;;;;;;13.60;100.00;101293.56;5102069;28;20204;-73
2022/10/07 00:49:51;;;;;;;1.10;0.90;;;;;;;13.65;100.00;101299.78;5107115;27;20296;-74
2022/10/07 00:52:20;;;;;;;1.63;1.08;;;;;;;13.64;100.00;101305.81;5102833;28;20206;-73
2022/10/07 00:54:52;;;;;;;0.80;0.80;;;;;;;13.61;100.00;101297.94;5111595;28;20198;-74
2022/10/07 00:57:20;;;;;;;0.88;0.88;;;;;;;13.49;100.00;101303.75;5056216;28;20289;-73
2022/10/07 00:59:47;;;;;;;1.40;1.00;;;;;;;13.37;100.00;101296.56;5107822;28;20276;-74
2022/10/07 01:02:14;;;;;;;1.20;1.00;;;;;;;13.32;100.00;101299.88;5111578;28;20202;-73
2022/10/07 01:04:45;;;;;;;1.05;0.90;;;;;;;13.40;100.00;101300.94;5112378;28;20197;-74
2022/10/07 01:07:16;;;;;;;1.02;0.90;;;;;;;13.37;100.00;101296.56;5103016;27;20553;-74
2022/10/07 01:09:42;;;;;;;0.82;0.82;;;;;;;13.34;100.00;101293.00;5106842;28;20210;-74
2022/10/07 01:12:18;;;;;;;0.93;0.90;;;;;;;13.59;100.00;101299.66;5091846;28;20923;-74
2022/10/07 01:14:55;;;;;;;1.00;0.90;;;;;;;13.79;100.00;101293.13;5092181;28;20190;-73
2022/10/07 01:17:27;;;;;;;1.23;0.98;;;;;;;13.90;100.00;101294.25;5091703;28;20209;-73
2022/10/07 01:20:16;;;;;;;1.17;0.90;;;;;;;13.94;100.00;101285.63;5092005;28;20198;-74
2022/10/07 01:22:54;;;;;;;1.13;1.02;;;;;;;13.98;100.00;101291.78;5091941;28;20230;-74
2022/10/07 01:25:32;;;;;;;1.38;1.00;;;;;;;14.08;100.00;101296.34;5091808;28;20665;-74
2022/10/07 01:28:06;;;;;;;2.20;1.00;;;;;;;14.03;100.00;101296.25;5096206;28;20557;-72
2022/10/07 01:30:39;;;;;;;1.65;1.08;;;;;;;13.98;100.00;101300.50;5094271;27;20688;-73
2022/10/07 01:33:11;;;;;;;1.63;1.00;;;;;;;14.08;100.00;101301.56;5091024;28;20217;-72
2022/10/07 01:35:39;;;;;;;1.42;1.00;;;;;;;14.14;100.00;101301.66;5091136;28;20240;-73
2022/10/07 01:38:10;;;;;;;1.45;1.10;;;;;;;14.20;100.00;101292.22;5075933;28;20186;-72
2022/10/07 01:40:42;;;;;;;1.00;0.90;;;;;;;14.20;100.00;101305.28;5091528;28;20213;-72
2022/10/07 01:43:11;;;;;;;0.95;0.85;;;;;;;14.09;100.00;101298.97;5091544;28;20194;-73
2022/10/07 01:45:41;;;;;;;1.45;0.98;;;;;;;14.03;100.00;101308.41;5091240;28;20194;-72
2022/10/07 01:48:08;;;;;;;2.10;1.02;;;;;;;13.86;100.00;101301.13;5073989;28;20229;-73
2022/10/07 01:50:36;;;;;;;1.52;1.00;;;;;;;13.78;100.00;101307.00;5105100;28;20236;-73
2022/10/07 01:53:26;;;;;;;0.82;0.82;;;;;;;13.72;100.00;101299.06;5058084;28;20237;-75
2022/10/07 01:56:10;;;;;;;2.60;1.20;;;;;;;13.53;100.00;101289.94;5084247;28;20284;-72
2022/10/07 01:59:04;;;;;;;1.80;1.10;;;;;;;13.50;100.00;101307.25;5092131;28;20729;-73
2022/10/07 02:01:42;;;;;;;1.45;1.10;;;;;;;13.14;100.00;101282.09;5092129;28;20198;-73
2022/10/07 02:04:24;;;;;;;2.08;1.05;;;;;;;13.23;100.00;101310.97;5092007;28;20224;-73
2022/10/07 02:06:59;;;;;;;1.67;1.17;;;;;;;13.10;100.00;101306.31;5097051;28;20201;-74
2022/10/07 02:09:32;;;;;;;1.30;0.95;;;;;;;13.07;100.00;101303.59;5111258;28;20196;-73
2022/10/07 02:12:04;;;;;;;1.70;1.00;;;;;;;13.07;100.00;101287.97;5110571;28;20197;-73
2022/10/07 02:14:40;;;;;;;1.35;1.00;;;;;;;13.28;100.00;101305.88;5091598;28;20221;-74
2022/10/07 02:17:14;;;;;;;1.00;0.90;;;;;;;13.28;100.00;101309.34;5092354;28;20190;-74
2022/10/07 02:19:46;;;;;;;1.67;1.00;;;;;;;12.98;100.00;101255.63;5091179;28;20238;-73
2022/10/07 02:22:17;;;;;;;1.52;0.98;;;;;;;13.09;100.00;101270.69;5102193;28;20672;-73
2022/10/07 02:24:47;;;;;;;1.45;0.93;;;;;;;13.29;100.00;101282.47;5108535;28;20197;-74
2022/10/07 02:27:18;;;;;;;1.33;1.17;;;;;;;13.32;100.00;101274.72;5091158;28;20641;-74
2022/10/07 02:29:49;;;;;;;0.80;0.80;;;;;;;13.49;100.00;101300.25;5090337;28;20202;-73
2022/10/07 02:32:20;;;;;;;1.20;1.02;;;;;;;13.50;100.00;101286.41;5090433;28;20289;-73
2022/10/07 02:34:50;;;;;;;1.55;1.00;;;;;;;13.59;100.00;101292.69;5090200;28;20269;-73
2022/10/07 02:37:23;;;;;;;2.92;2.17;;;;;;;13.60;100.00;101296.16;5090879;28;20198;-74
2022/10/07 02:39:50;;;;;;;2.25;1.10;;;;;;;13.40;100.00;101299.22;5088421;28;20554;-73
2022/10/07 02:42:24;;;;;;;2.13;1.02;;;;;;;13.48;100.00;101295.91;5101733;28;20613;-74
2022/10/07 02:44:56;;;;;;;1.55;1.00;;;;;;;13.41;100.00;101282.72;5105713;28;20197;-73
2022/10/07 02:47:30;;;;;;;0.82;0.82;;;;;;;13.46;100.00;101297.59;5094804;28;20275;-74
2022/10/07 02:50:00;;;;;;;1.52;0.90;;;;;;;13.29;100.00;101279.88;5107452;28;20201;-73
2022/10/07 02:52:31;;;;;;;1.05;0.82;;;;;;;13.22;100.00;101280.56;5071656;28;20218;-73
2022/10/07 02:55:03;;;;;;;1.05;0.93;;;;;;;13.37;100.00;101309.59;5104801;28;20593;-74
2022/10/07 02:57:32;;;;;;;0.80;0.80;;;;;;;13.20;100.00;101316.09;5110574;28;20200;-73
2022/10/07 03:00:01;;;;;;;1.00;0.90;;;;;;;13.24;100.00;101320.53;5075640;28;20822;-73
2022/10/07 03:02:36;;;;;;;1.20;0.90;;;;;;;13.37;100.00;101309.59;5110461;28;20653;-73
2022/10/07 03:05:02;;;;;;;0.90;0.90;;;;;;;13.10;100.00;101285.47;5109138;28;20195;-74
2022/10/07 03:07:29;;;;;;;1.27;0.90;;;;;;;13.23;100.00;101316.19;5092983;28;20698;-73
2022/10/07 03:09:56;;;;;;;0.98;0.88;;;;;;;13.20;100.00;101321.31;5090691;28;20194;-73
2022/10/07 03:12:23;;;;;;;1.50;1.05;;;;;;;13.12;100.00;101322.88;5102764;28;20201;-73
2022/10/07 03:14:50;;;;;;;1.75;1.05;;;;;;;13.01;100.00;101312.97;5110265;28;20229;-73
2022/10/07 03:17:18;;;;;;;0.90;0.90;;;;;;;13.20;100.00;101320.41;5105905;28;20645;-73
2022/10/07 03:19:45;;;;;;;1.02;0.90;;;;;;;13.09;100.00;101317.56;5097696;28;20205;-73
2022/10/07 03:22:12;;;;;;;2.10;1.10;;;;;;;13.04;100.00;101318.25;5104245;28;20569;-73
2022/10/07 03:24:39;;;;;;;1.20;1.00;;;;;;;13.00;100.00;101317.31;5093890;28;20241;-73
2022/10/07 03:27:06;;;;;;;0.93;0.88;;;;;;;12.93;100.00;101310.19;5110157;28;20237;-73
2022/10/07 03:29:34;;;;;;;1.38;1.00;;;;;;;12.96;100.00;101325.88;5114160;28;20233;-70
2022/10/07 03:32:01;;;;;;;1.60;0.95;;;;;;;12.84;100.00;101310.81;5112591;27;20610;-73
2022/10/07 03:34:30;;;;;;;1.40;0.80;;;;;;;12.92;100.00;101314.50;5097202;28;20641;-73
2022/10/07 03:36:57;;;;;;;0.90;0.90;;;;;;;12.85;100.00;101322.13;5096111;28;20205;-73
2022/10/07 03:39:24;;;;;;;1.10;0.90;;;;;;;12.86;100.00;101311.75;5078589;28;20671;-74
2022/10/07 03:41:51;;;;;;;0.80;0.80;;;;;;;12.80;100.00;101309.00;5113744;28;20194;-74
2022/10/07 03:44:18;;;;;;;1.05;0.93;;;;;;;12.59;100.00;101294.56;5114303;28;20202;-73
2022/10/07 03:46:48;;;;;;;0.88;0.80;;;;;;;12.70;100.00;101286.16;5111698;28;20271;-74
2022/10/07 03:49:15;;;;;;;1.02;0.90;;;;;;;12.71;100.00;101308.75;5110496;28;20191;-73
2022/10/07 03:51:44;;;;;;;1.05;0.90;;;;;;;12.75;100.00;101295.00;5114034;28;20723;-73
2022/10/07 03:54:10;;;;;;;0.77;0.77;;;;;;;12.56;100.00;101307.47;5113758;28;20225;-74
2022/10/07 03:56:37;;;;;;;1.02;0.95;;;;;;;12.54;100.00;101297.03;5113867;28;20205;-74
2022/10/07 03:59:04;;;;;;;1.10;0.93;;;;;;;12.57;100.00;101312.72;5113591;28;20205;-73
2022/10/07 04:01:31;;;;;;;1.23;1.13;;;;;;;12.40;100.00;101291.47;5113081;28;20197;-74
2022/10/07 04:03:59;;;;;;;1.02;0.90;;;;;;;12.08;100.00;101255.91;5113368;28;20205;-74
2022/10/07 04:06:26;;;;;;;1.30;1.00;;;;;;;12.20;100.00;101292.63;5111992;28;20586;-73
2022/10/07 04:08:55;;;;;;;1.55;1.00;;;;;;;12.27;100.00;101291.09;5094181;28;20202;-73
2022/10/07 04:11:23;;;;;;;0.70;0.70;;;;;;;12.26;100.00;101298.00;5093478;28;20221;-73
2022/10/07 04:13:50;;;;;;;0.90;0.90;;;;;;;12.26;100.00;101303.22;5091900;28;20230;-74
2022/10/07 04:16:17;;;;;;;1.02;0.93;;;;;;;12.13;100.00;101301.09;5098795;28;20198;-73
2022/10/07 04:18:44;;;;;;;1.85;1.00;;;;;;;12.12;100.00;101304.56;5093154;28;20195;-73
2022/10/07 04:21:11;;;;;;;1.10;0.80;;;;;;;12.16;100.00;101315.94;5095297;28;20205;-73
2022/10/07 04:23:41;;;;;;;1.52;1.42;;;;;;;12.25;100.00;101317.06;5092301;28;20194;-74
2022/10/07 04:26:11;;;;;;;0.80;0.80;;;;;;;12.17;100.00;101321.16;5092969;28;20194;-73
2022/10/07 04:28:38;;;;;;;1.13;0.90;;;;;;;12.14;100.00;101314.97;5093390;28;20209;-73
2022/10/07 04:31:07;;;;;;;1.80;1.10;;;;;;;11.96;100.00;101291.94;5092609;28;20736;-73
2022/10/07 04:33:34;;;;;;;1.13;0.98;;;;;;;12.00;100.00;101300.72;5095611;28;20194;-73
2022/10/07 04:36:04;;;;;;;1.35;1.00;;;;;;;12.09;100.00;101283.69;5092151;28;20278;-73
2022/10/07 04:38:31;;;;;;;0.73;0.73;;;;;;;12.14;100.00;101300.25;5095670;28;20203;-74
2022/10/07 04:40:59;;;;;;;0.80;0.80;;;;;;;12.21;100.00;101323.00;5048802;28;20258;-73
2022/10/07 04:43:27;;;;;;;0.85;0.85;;;;;;;12.15;100.00;101320.25;5055643;28;20562;-73
2022/10/07 04:46:00;;;;;;;1.10;1.00;;;;;;;12.07;100.00;101324.31;5072905;28;20206;-73
2022/10/07 04:48:26;;;;;;;1.45;0.90;;;;;;;12.07;100.00;101320.84;5097270;28;20629;-74
2022/10/07 04:50:53;;;;;;;0.93;0.90;;;;;;;12.10;100.00;101315.72;5109807;28;20232;-73
2022/10/07 04:53:21;;;;;;;0.70;0.70;;;;;;;12.02;100.00;101309.44;5094448;28;20194;-73
2022/10/07 04:55:50;;;;;;;1.35;0.90;;;;;;;12.17;100.00;101292.53;5111056;28;20225;-73
2022/10/07 04:58:19;;;;;;;4.22;3.85;;;;;;;12.27;100.00;101294.56;5110398;28;20259;-73
2022/10/07 05:00:49;;;;;;;1.02;0.93;;;;;;;12.45;100.00;101321.94;5092994;28;20204;-73
2022/10/07 05:03:17;;;;;;;1.30;0.95;;;;;;;12.55;100.00;101326.53;5100439;28;20283;-74
2022/10/07 05:05:46;;;;;;;1.75;1.00;;;;;;;12.65;100.00;101318.13;5078818;28;20218;-73
2022/10/07 05:08:14;;;;;;;1.33;0.90;;;;;;;12.65;100.00;101328.53;5071844;28;20195;-74
2022/10/07 05:10:41;;;;;;;1.92;1.13;;;;;;;12.73;100.00;101343.53;5075729;28;20645;-74
2022/10/07 05:13:11;;;;;;;1.60;0.90;;;;;;;12.85;100.00;101345.53;5092018;28;20202;-72
2022/10/07 05:15:37;;;;;;;2.63;1.10;;;;;;;12.81;100.00;101351.50;5089061;28;20262;-73
2022/10/07 05:18:06;;;;;;;0.90;0.90;;;;;;;12.94;100.00;101351.00;5085452;28;20190;-74
2022/10/07 05:20:34;;;;;;;1.40;1.02;;;;;;;12.36;100.00;101304.34;5053062;28;20252;-75
2022/10/07 05:23:01;;;;;;;0.95;0.90;;;;;;;12.67;100.00;101363.28;5089356;28;20197;-76
2022/10/07 05:25:27;;;;;;;0.70;0.70;;;;;;;12.77;100.00;101360.09;5097554;28;20190;-75
2022/10/07 05:27:54;;;;;;;3.30;3.10;;;;;;;12.55;100.00;101330.03;5072102;28;20202;-75
2022/10/07 05:30:21;;;;;;;2.03;1.02;;;;;;;12.71;100.00;101365.13;5091674;28;20194;-75
2022/10/07 05:32:48;;;;;;;1.83;1.00;;;;;;;12.72;100.00;101372.09;5091226;28;20210;-77
2022/10/07 05:35:16;;;;;;;1.33;1.00;;;;;;;12.84;100.00;101378.50;5097834;28;20229;-74
2022/10/07 05:37:43;;;;;;;1.05;0.90;;;;;;;12.84;100.00;101382.84;5091564;28;20209;-73
2022/10/07 05:40:10;;;;;;;1.05;0.90;;;;;;;12.95;100.00;101380.53;5082734;28;20210;-74
2022/10/07 05:42:37;;;;;;;1.00;0.90;;;;;;;12.69;100.00;101300.03;5065289;28;20202;-72
2022/10/07 05:45:04;;;;;;;1.20;0.90;;;;;;;13.21;100.00;101384.69;5086125;28;20210;-74
2022/10/07 05:47:33;;;;;;;1.58;0.90;;;;;;;13.04;100.00;101376.44;5082144;28;20285;-73
2022/10/07 05:50:00;;;;;;;1.45;1.00;;;;;;;13.43;100.00;101375.69;5080324;28;20286;-71
2022/10/07 05:52:29;;;;;;;1.58;0.98;;;;;;;13.68;100.00;101375.41;5069122;28;20214;-73
2022/10/07 05:54:56;;;;;;;0.85;0.80;;;;;;;13.71;100.00;101398.94;5070489;28;20230;-72
2022/10/07 05:57:23;;;;;;;0.80;0.80;;;;;;;13.55;100.00;101389.03;5071158;28;20210;-74
2022/10/07 05:59:50;;;;;;;1.35;0.98;;;;;;;13.56;100.00;101395.97;5069197;28;20690;-72
2022/10/07 06:02:19;;;;;;;2.25;1.00;;;;;;;13.55;100.00;101402.94;5069960;28;20271;-72
2022/10/07 06:04:47;;;;;;;3.45;3.25;;;;;;;13.20;100.00;101402.03;5069754;28;20256;-73
2022/10/07 06:07:15;;;;;;;1.23;0.90;;;;;;;13.10;100.00;101413.06;5069030;28;20211;-73
2022/10/07 06:15:14;;;;;;;1.00;0.90;;;;;;;13.48;100.00;101397.53;5030346;28;20667;-73
2022/10/07 06:17:44;;;;;;;1.25;1.10;;;;;;;13.56;100.00;101373.41;5046746;28;20192;-72
2022/10/07 06:20:12;;;;;;;1.20;0.90;;;;;;;13.80;100.00;101405.28;4995667;28;20223;-73
2022/10/07 06:22:39;;;;;;;1.27;0.90;;;;;;;13.68;100.00;101398.88;5047781;28;20301;-73
2022/10/07 06:25:08;;;;;;;1.05;0.90;;;;;;;13.54;100.00;101371.63;5048251;28;20208;-73
2022/10/07 06:27:35;;;;;;;1.15;1.05;;;;;;;13.57;100.00;101402.97;5033703;28;20200;-73
2022/10/07 06:30:02;;;;;;;1.27;1.00;;;;;;;13.79;100.00;101418.25;4985144;28;20208;-73
2022/10/07 06:32:31;;;;;;;1.02;0.90;;;;;;;13.74;100.00;101412.06;5036951;28;20374;-73
2022/10/07 06:34:58;;;;;;;1.80;1.00;;;;;;;13.83;100.00;101420.09;5027863;28;20227;-73
2022/10/07 06:37:25;;;;;;;0.90;0.90;;;;;;;13.73;100.00;101400.75;5029067;28;20219;-73
2022/10/07 06:39:51;;;;;;;1.08;1.08;;;;;;;13.96;100.00;101419.53;5039126;28;20199;-73
2022/10/07 06:42:19;;;;;;;1.55;0.90;;;;;;;14.07;100.00;101391.06;5034436;28;20207;-72
2022/10/07 06:44:46;;;;;;;1.23;0.90;;;;;;;14.17;100.00;101420.00;5047965;28;20207;-72
2022/10/07 06:47:13;;;;;;;1.13;1.10;;;;;;;13.77;100.00;101406.91;5047812;28;20631;-73
2022/10/07 06:49:40;;;;;;;0.95;0.90;;;;;;;14.07;100.00;101422.38;5071665;28;20202;-73
2022/10/07 06:52:07;;;;;;;3.22;1.27;;;;;;;14.07;100.00;101389.34;5089773;28;20634;-73
2022/10/07 06:54:33;;;;;;;0.80;0.80;;;;;;;14.30;100.00;101416.78;5090068;28;20214;-73
2022/10/07 06:57:00;;;;;;;1.15;1.08;;;;;;;14.26;100.00;101411.50;5090313;28;20281;-73
2022/10/07 06:59:28;;;;;;;0.93;0.93;;;;;;;14.44;100.00;101416.25;5093802;28;20213;-73
2022/10/07 07:01:55;;;;;;;1.33;0.80;;;;;;;14.52;100.00;101419.91;5058352;28;20202;-73
2022/10/07 07:04:23;;;;;;;1.10;1.00;;;;;;;14.51;100.00;101398.16;5094511;28;20205;-73
2022/10/07 07:06:50;;;;;;;1.25;1.00;;;;;;;14.77;100.00;101420.41;5075685;28;20202;-73
2022/10/07 07:09:17;;;;;;;1.42;0.90;;;;;;;14.89;100.00;101423.28;5087075;28;20268;-73
2022/10/07 07:11:44;;;;;;;1.55;1.45;;;;;;;14.82;100.00;101404.84;5075538;28;20202;-74
2022/10/07 07:14:12;;;;;;;1.00;0.90;;;;;;;15.08;100.00;101402.72;5085747;28;20198;-74
2022/10/07 07:16:40;;;;;;;1.33;0.95;;;;;;;14.89;100.00;101380.59;5082411;28;20199;-74
2022/10/07 07:19:10;;;;;;;1.25;1.15;;;;;;;15.28;100.00;101412.66;5075876;28;20206;-74
2022/10/07 07:21:39;;;;;;;1.70;1.00;;;;;;;15.06;100.00;101384.38;5073399;28;20686;-74
2022/10/07 07:24:07;;;;;;;1.40;1.08;;;;;;;15.30;100.00;101420.53;5082110;28;20293;-74
2022/10/07 07:26:36;;;;;;;1.00;1.00;;;;;;;15.51;100.00;101440.94;5093895;28;20206;-74
2022/10/07 07:29:06;;;;;;;1.35;1.02;;;;;;;15.71;100.00;101436.91;5093459;28;20194;-73
2022/10/07 07:31:34;;;;;;;1.17;0.93;;;;;;;15.51;100.00;101420.91;5093703;28;20580;-74
2022/10/07 07:34:06;;;;;;;3.85;1.30;;;;;;;15.88;100.00;101448.50;5087543;28;20201;-74
2022/10/07 07:36:35;;;;;;;1.67;0.98;;;;;;;15.93;100.00;101436.41;5071034;28;20226;-74
2022/10/07 07:39:04;;;;;;;1.85;1.00;;;;;;;16.10;100.00;101445.38;5078398;28;20211;-75
2022/10/07 07:41:34;;;;;;;1.63;0.93;;;;;;;16.08;100.00;101439.25;5073019;28;20199;-74
2022/10/07 07:44:04;;;;;;;3.00;1.13;;;;;;;16.12;100.00;101419.22;5076636;28;20211;-74
2022/10/07 07:46:35;;;;;;;1.23;1.00;;;;;;;16.24;100.00;101425.50;5087379;28;20213;-74
2022/10/07 07:49:04;;;;;;;1.95;1.00;;;;;;;16.25;100.00;101414.19;5090716;28;20593;-75
2022/10/07 07:51:32;;;;;;;1.10;0.85;;;;;;;16.28;100.00;101439.50;5089376;28;20230;-73
2022/10/07 07:53:59;;;;;;;1.50;0.90;;;;;;;16.32;99.97;101439.56;5077262;28;20205;-74
2022/10/07 07:56:27;;;;;;;1.13;1.00;;;;;;;16.51;100.00;101443.31;5093550;28;20257;-74
2022/10/07 07:58:55;;;;;;;1.85;1.10;;;;;;;16.56;99.90;101430.28;5074375;28;20194;-74
2022/10/07 08:01:22;;;;;;;0.98;0.85;;;;;;;16.72;100.00;101438.38;5091156;28;20237;-74
2022/10/07 08:03:49;;;;;;;0.80;0.80;;;;;;;16.94;99.04;101444.72;5093282;28;20194;-74
2022/10/07 08:06:19;;;;;;;0.90;0.85;;;;;;;17.06;98.79;101454.44;5088202;28;20206;-74
2022/10/07 08:08:46;;;;;;;1.38;1.10;;;;;;;16.95;97.39;101416.75;5087582;28;20193;-74
2022/10/07 08:11:15;;;;;;;1.48;1.00;;;;;;;17.34;94.35;101439.00;5091504;28;20243;-74
2022/10/07 08:13:42;;;;;;;2.95;1.20;;;;;;;17.41;94.03;101447.81;5092585;28;20205;-74
2022/10/07 08:16:11;;;;;;;1.25;0.90;;;;;;;17.20;86.48;101427.50;5092549;28;20685;-74
2022/10/07 08:18:38;;;;;;;0.75;0.75;;;;;;;17.31;86.25;101449.47;5092041;28;20208;-74
2022/10/07 08:21:06;;;;;;;1.20;1.00;;;;;;;17.40;85.14;101442.56;5055918;28;20902;-74
2022/10/07 08:23:35;;;;;;;1.27;1.00;;;;;;;17.60;84.65;101433.13;5092247;28;20229;-74
2022/10/07 08:26:03;;;;;;;0.98;0.90;;;;;;;17.51;83.06;101404.19;5092597;28;20237;-74
2022/10/07 08:28:30;;;;;;;1.67;1.00;;;;;;;17.77;82.67;101439.38;5093041;28;20245;-74
2022/10/07 08:31:02;;;;;;;0.80;0.80;;;;;;;17.68;84.47;101415.72;5093112;28;20252;-74
2022/10/07 08:33:33;;;;;;;1.23;0.90;;;;;;;17.58;83.78;101406.03;5093034;28;20200;-74
2022/10/07 08:36:01;;;;;;;1.20;1.00;;;;;;;17.91;84.53;101435.13;5092867;28;20321;-74
2022/10/07 08:38:30;;;;;;;0.90;0.90;;;;;;;17.98;80.22;101434.28;5092835;28;20198;-74
2022/10/07 08:41:10;;;;;;;0.70;0.70;;;;;;;18.12;79.89;101430.00;5092941;28;20201;-75
2022/10/07 08:43:40;;;;;;;2.13;1.00;;;;;;;18.03;80.40;101426.44;5092823;28;20190;-73
2022/10/07 08:46:12;;;;;;;1.77;0.98;;;;;;;18.01;78.56;101422.94;5084150;28;20238;-73
2022/10/07 08:48:40;;;;;;;1.95;1.10;;;;;;;18.10;78.05;101405.50;5081802;28;20210;-74
2022/10/07 08:51:19;;;;;;;1.23;0.95;;;;;;;18.26;76.15;101425.69;5092613;28;20241;-75
2022/10/07 08:53:49;;;;;;;1.38;1.27;;;;;;;17.99;76.90;101386.19;5091684;28;20315;-74
2022/10/07 08:56:20;;;;;;;1.83;1.10;;;;;;;18.16;78.27;101392.41;5092306;28;20226;-74
2022/10/07 08:59:08;;;;;;;1.00;0.93;;;;;;;18.41;78.98;101405.66;5087782;28;20202;-74
2022/10/07 09:01:46;;;;;;;1.92;1.17;;;;;;;18.44;79.44;101416.19;5078408;28;20227;-72
2022/10/07 09:04:28;;;;;;;1.33;1.20;;;;;;;18.72;77.56;101412.81;5087639;28;20198;-72
2022/10/07 09:07:00;;;;;;;0.73;0.73;;;;;;;18.72;77.33;101386.53;5092500;28;20202;-72
2022/10/07 09:09:35;;;;;;;2.60;1.95;;;;;;;18.94;76.77;101398.81;5074455;28;20197;-73
2022/10/07 09:12:07;;;;;;;1.35;0.98;;;;;;;18.90;75.26;101407.59;5090688;28;20212;-73
2022/10/07 09:14:38;;;;;;;11.55;2.40;;;;;;;19.11;75.20;101401.50;5092028;28;20194;-74
2022/10/07 09:17:11;;;;;;;1.55;1.17;;;;;;;19.05;73.88;101396.25;5089577;28;20226;-73
2022/10/07 09:19:42;;;;;;;1.70;0.98;;;;;;;19.19;73.83;101403.25;5024260;28;20228;-73
2022/10/07 09:22:18;;;;;;;3.35;1.27;;;;;;;19.30;74.51;101393.63;5077444;28;20199;-73
2022/10/07 09:24:46;;;;;;;2.05;1.10;;;;;;;19.27;71.69;101388.34;5091969;28;20640;-73
2022/10/07 09:27:17;;;;;;;1.63;1.10;;;;;;;19.32;72.92;101369.97;5092037;28;20230;-71
2022/10/07 09:29:44;;;;;;;1.23;1.00;;;;;;;19.27;71.67;101364.69;5091681;28;20217;-73
2022/10/07 09:32:13;;;;;;;1.00;0.90;;;;;;;19.53;72.30;101377.00;5091856;28;20198;-73
2022/10/07 09:34:39;;;;;;;1.58;0.98;;;;;;;19.24;72.99;101364.69;5091795;28;20203;-73
2022/10/07 09:37:17;;;;;;;3.50;1.60;;;;;;;19.44;73.32;101364.69;5055656;28;20592;-73
2022/10/07 09:39:45;;;;;;;7.78;2.00;;;;;;;19.60;72.46;101378.72;5091589;28;20229;-72
2022/10/07 09:42:31;;;;;;;1.48;0.98;;;;;;;19.90;73.76;101365.53;5091406;28;20198;-72
2022/10/07 09:45:01;;;;;;;3.90;2.88;;;;;;;19.87;72.08;101354.97;5091544;28;20206;-72
2022/10/07 09:47:32;;;;;;;1.00;0.80;;;;;;;19.91;71.31;101346.19;5091523;28;20327;-71
2022/10/07 09:49:59;;;;;;;5.35;1.52;;;;;;;19.91;71.77;101335.66;5091468;28;20206;-72
2022/10/07 09:52:27;;;;;;;1.80;1.17;;;;;;;20.07;72.61;101347.91;5077050;28;20226;-72
2022/10/07 09:54:56;;;;;;;2.17;1.30;;;;;;;19.86;72.80;101311.13;5091443;28;20213;-72
2022/10/07 09:57:33;;;;;;;3.03;1.10;;;;;;;20.19;72.27;101332.06;5091173;28;20282;-73
2022/10/07 10:00:17;;;;;;;1.48;1.00;;;;;;;20.48;71.08;101346.88;5091427;28;20232;-73
2022/10/07 10:02:48;;;;;;;1.42;1.10;;;;;;;20.58;70.81;101340.69;5090172;28;20198;-72
2022/10/07 10:05:24;;;;;;;1.17;0.90;;;;;;;20.36;72.40;101341.69;5091247;28;20233;-73
2022/10/07 10:07:57;;;;;;;1.33;1.02;;;;;;;20.39;71.34;101345.19;5091090;28;20255;-73
2022/10/07 10:10:27;;;;;;;1.85;0.88;;;;;;;20.48;70.89;101309.97;5091305;28;20211;-74
2022/10/07 10:12:57;;;;;;;0.90;0.90;;;;;;;20.35;69.06;101317.09;5091341;28;20206;-73
2022/10/07 10:15:43;;;;;;;0.88;0.80;;;;;;;20.30;69.27;101315.38;5090974;28;20209;-73
2022/10/07 10:18:28;;;;;;;1.75;1.02;;;;;;;20.58;69.28;101323.09;5091154;28;20617;-73
2022/10/07 10:20:55;;;;;;;3.40;1.33;;;;;;;20.63;69.34;101313.41;5090905;28;20194;-73
2022/10/07 10:23:29;;;;;;;1.88;1.10;;;;;;;20.63;66.84;101288.81;5091064;28;20202;-73
2022/10/07 10:26:26;;;;;;;1.00;1.00;;;;;;;20.68;66.96;101316.03;5091020;28;20198;-73
2022/10/07 10:29:03;;;;;;;0.85;0.85;;;;;;;20.88;65.19;101306.19;5090918;28;20202;-74
2022/10/07 10:31:44;;;;;;;4.65;1.42;;;;;;;20.95;64.58;101307.91;5091018;28;20197;-73
2022/10/07 10:34:26;;;;;;;2.10;1.00;;;;;;;20.98;64.96;101281.50;5093917;28;20201;-74
2022/10/07 10:37:00;;;;;;;1.75;0.90;;;;;;;21.02;65.68;101279.72;5094886;28;20232;-73
2022/10/07 10:39:46;;;;;;;1.00;0.85;;;;;;;21.29;63.56;101290.06;5095185;28;20198;-73
2022/10/07 10:42:17;;;;;;;0.90;0.80;;;;;;;21.22;63.16;101288.38;5095200;28;20259;-73
2022/10/07 10:45:06;;;;;;;1.08;1.08;;;;;;;21.04;65.75;101284.13;5094989;28;20291;-73
2022/10/07 10:47:47;;;;;;;1.05;0.95;;;;;;;21.24;61.43;101278.69;5094815;28;20198;-74
2022/10/07 10:50:24;;;;;;;1.60;1.00;;;;;;;21.19;62.66;101284.00;5095053;28;20230;-73
2022/10/07 10:53:03;;;;;;;0.70;0.70;;;;;;;21.05;63.33;101264.75;5059090;28;20202;-73
2022/10/07 10:55:43;;;;;;;1.23;1.10;;;;;;;21.26;62.50;101259.28;5094745;28;20876;-73
2022/10/07 10:58:23;;;;;;;0.70;0.70;;;;;;;21.50;61.51;101257.31;5094523;28;20206;-72
2022/10/07 11:01:01;;;;;;;1.10;1.00;;;;;;;21.53;61.51;101246.72;5094434;28;20752;-73
2022/10/07 11:03:50;;;;;;;0.75;0.75;;;;;;;21.76;58.74;101263.16;5094614;28;20198;-70
2022/10/07 11:06:18;;;;;;;1.73;1.25;;;;;;;21.68;59.55;101231.56;5094621;28;20619;-73
2022/10/07 11:08:47;;;;;;;2.50;1.00;;;;;;;21.53;60.13;101242.31;5094806;28;20206;-75
2022/10/07 11:11:18;;;;;;;2.17;1.00;;;;;;;21.54;60.81;101240.56;5094668;28;20236;-73
2022/10/07 11:13:51;;;;;;;0.85;0.85;;;;;;;21.74;61.45;101239.41;5094423;28;20202;-75
2022/10/07 11:16:24;;;;;;;1.15;0.80;;;;;;;21.99;61.91;101237.38;5094368;28;20228;-75
2022/10/07 11:18:56;;;;;;;1.00;0.77;;;;;;;22.04;60.36;101235.56;5094209;28;20275;-74
2022/10/07 11:21:28;;;;;;;1.98;1.10;;;;;;;22.07;60.77;101209.09;5094407;28;20198;-74
2022/10/07 11:24:01;;;;;;;1.05;0.80;;;;;;;22.12;60.81;101215.16;5094263;28;20202;-74
2022/10/07 11:26:34;;;;;;;2.55;1.00;;;;;;;21.95;60.26;101222.44;5091951;28;20241;-74
2022/10/07 11:29:10;;;;;;;0.60;0.60;;;;;;;22.03;60.29;101217.94;5074738;28;20194;-73
2022/10/07 11:31:42;;;;;;;2.10;1.00;;;;;;;22.21;59.89;101216.81;5093863;28;20204;-73
2022/10/07 11:34:17;;;;;;;1.65;0.98;;;;;;;22.29;59.72;101200.84;5094020;28;20198;-73
2022/10/07 11:37:05;;;;;;;1.50;1.00;;;;;;;22.45;60.05;101207.63;5093739;28;20751;-74
2022/10/07 11:39:36;;;;;;;0.85;0.82;;;;;;;22.17;60.05;101194.84;5093397;28;20194;-72